createdAt,value
2022-10-13T00:01:33.376Z,24.35
2022-10-13T00:04:01.889Z,25.20
2022-10-13T00:06:32.190Z,25.23
2022-10-13T00:09:00.912Z,23.25
2022-10-13T00:11:31.648Z,27.52
2022-10-13T00:14:03.758Z,29.05
2022-10-13T00:16:35.170Z,33.42
2022-10-13T00:19:03.985Z,25.42
2022-10-13T00:21:33.930Z,22.92
2022-10-13T00:24:02.439Z,25.08
2022-10-13T00:26:31.281Z,23.48
2022-10-13T00:28:59.925Z,24.67
2022-10-13T00:31:32.067Z,23.30
2022-10-13T00:34:02.588Z,22.08
2022-10-13T00:36:31.259Z,22.48
2022-10-13T00:39:01.576Z,23.20
2022-10-13T00:41:30.334Z,23.80
2022-10-13T00:44:01.880Z,23.45
2022-10-13T00:46:34.199Z,23.25
2022-10-13T00:49:08.381Z,24.50
2022-10-13T00:51:43.291Z,25.00
2022-10-13T00:54:18.858Z,23.90
2022-10-13T00:56:50.696Z,22.20
2022-10-13T00:59:27.170Z,23.60
2022-10-13T01:01:58.820Z,23.02
2022-10-13T01:04:34.140Z,22.58
2022-10-13T01:07:04.524Z,23.35
2022-10-13T01:09:37.807Z,22.35
2022-10-13T01:12:18.691Z,22.83
2022-10-13T01:14:56.018Z,22.35
2022-10-13T01:17:38.004Z,21.50
2022-10-13T01:20:39.175Z,22.08
2022-10-13T01:23:34.874Z,22.35
2022-10-13T01:26:44.984Z,22.13
2022-10-13T01:29:55.348Z,22.40
2022-10-13T01:32:32.637Z,21.70
2022-10-13T01:35:10.733Z,21.40
2022-10-13T01:37:49.030Z,21.13
2022-10-13T01:40:26.983Z,21.60
2022-10-13T01:43:03.016Z,20.67
2022-10-13T01:45:39.903Z,21.30
2022-10-13T01:48:12.205Z,23.05
2022-10-13T01:50:45.029Z,21.65
2022-10-13T01:53:18.097Z,22.77
2022-10-13T01:55:55.574Z,23.10
2022-10-13T01:58:26.159Z,22.08
2022-10-13T02:01:17.751Z,22.15
2022-10-13T02:04:02.303Z,22.10
2022-10-13T02:06:37.974Z,22.95
2022-10-13T02:09:15.590Z,22.27
2022-10-13T02:11:52.674Z,21.70
2022-10-13T02:14:27.534Z,23.40
2022-10-13T02:17:03.478Z,23.90
2022-10-13T02:19:37.181Z,24.15
2022-10-13T02:22:08.002Z,25.52
2022-10-13T02:24:36.932Z,24.52
2022-10-13T02:27:07.818Z,23.65
2022-10-13T02:29:50.210Z,25.67
2022-10-13T02:32:20.497Z,25.98
2022-10-13T02:34:49.857Z,25.33
2022-10-13T02:37:18.852Z,24.77
2022-10-13T02:39:47.432Z,25.42
2022-10-13T02:42:19.355Z,26.45
2022-10-13T02:44:48.404Z,27.13
2022-10-13T02:47:16.991Z,26.67
2022-10-13T02:49:47.046Z,27.10
2022-10-13T02:52:15.688Z,27.25
2022-10-13T02:54:44.208Z,28.27
2022-10-13T02:57:12.958Z,26.48
2022-10-13T02:59:45.421Z,27.48
2022-10-13T03:02:14.321Z,26.65
2022-10-13T03:04:42.848Z,27.52
2022-10-13T03:07:13.240Z,26.73
2022-10-13T03:09:41.976Z,26.85
2022-10-13T03:12:10.829Z,27.50
2022-10-13T03:14:39.486Z,28.38
2022-10-13T03:17:13.149Z,28.95
2022-10-13T03:19:42.053Z,26.65
2022-10-13T03:22:15.718Z,27.63
2022-10-13T03:24:44.292Z,27.95
2022-10-13T03:27:12.982Z,28.75
2022-10-13T03:29:41.690Z,28.40
2022-10-13T03:32:10.294Z,29.20
2022-10-13T03:34:39.008Z,29.75
2022-10-13T03:37:07.540Z,27.55
2022-10-13T03:39:44.690Z,29.77
2022-10-13T03:42:14.578Z,28.25
2022-10-13T03:44:43.073Z,27.73
2022-10-13T03:47:11.795Z,27.20
2022-10-13T03:49:40.343Z,27.65
2022-10-13T03:52:08.913Z,26.70
2022-10-13T03:54:37.641Z,28.83
2022-10-13T03:57:08.948Z,26.88
2022-10-13T03:59:37.479Z,26.95
2022-10-13T04:02:06.331Z,27.48
2022-10-13T04:04:36.162Z,26.75
2022-10-13T04:07:04.785Z,27.48
2022-10-13T04:09:33.659Z,25.15
2022-10-13T04:12:02.163Z,27.35
2022-10-13T04:14:32.069Z,26.23
2022-10-13T04:17:10.007Z,28.25
2022-10-13T04:19:39.074Z,26.77
2022-10-13T04:22:07.617Z,27.05
2022-10-13T04:24:37.447Z,26.35
2022-10-13T04:27:06.065Z,26.70
2022-10-13T04:29:35.927Z,26.67
2022-10-13T04:32:04.899Z,26.42
2022-10-13T04:34:33.426Z,27.42
2022-10-13T04:37:01.935Z,35.13
2022-10-13T04:39:30.751Z,47.95
2022-10-13T04:41:59.234Z,42.85
2022-10-13T04:44:28.011Z,30.23
2022-10-13T04:46:58.008Z,26.30
2022-10-13T04:49:26.710Z,25.08
2022-10-13T04:51:55.427Z,26.42
2022-10-13T04:54:23.965Z,25.77
2022-10-13T04:56:52.695Z,26.02
2022-10-13T04:59:21.263Z,24.85
2022-10-13T05:01:49.763Z,25.10
2022-10-13T05:04:19.905Z,24.58
2022-10-13T05:07:16.061Z,24.50
2022-10-13T05:09:37.365Z,25.25
2022-10-13T05:12:12.172Z,25.27
2022-10-13T05:14:41.050Z,24.05
2022-10-13T05:17:09.749Z,24.40
2022-10-13T05:19:39.809Z,24.80
2022-10-13T05:22:08.505Z,25.58
2022-10-13T05:24:40.896Z,25.95
2022-10-13T05:27:13.465Z,24.85
2022-10-13T05:29:42.310Z,24.50
2022-10-13T05:32:10.846Z,24.98
2022-10-13T05:34:40.700Z,23.85
2022-10-13T05:37:09.428Z,25.42
2022-10-13T05:39:37.986Z,24.17
2022-10-13T05:42:06.768Z,24.08
2022-10-13T05:44:36.362Z,24.83
2022-10-13T05:47:07.624Z,25.58
2022-10-13T05:49:39.777Z,24.30
2022-10-13T05:52:13.682Z,26.35
2022-10-13T05:54:47.307Z,24.73
2022-10-13T05:57:22.453Z,24.38
2022-10-13T05:59:58.218Z,25.58
2022-10-13T06:02:35.015Z,24.02
2022-10-13T06:05:06.829Z,26.33
2022-10-13T06:07:37.098Z,30.95
2022-10-13T06:10:07.247Z,32.00
2022-10-13T06:12:36.248Z,29.42
2022-10-13T06:15:05.595Z,26.83
2022-10-13T06:17:37.309Z,26.25
2022-10-13T06:20:07.740Z,25.70
2022-10-13T06:22:40.053Z,26.80
2022-10-13T06:25:10.485Z,25.48
2022-10-13T06:27:39.233Z,31.52
2022-10-13T06:30:09.689Z,32.13
2022-10-13T06:32:39.023Z,30.63
2022-10-13T06:35:09.131Z,27.42
2022-10-13T06:37:39.398Z,29.05
2022-10-13T06:40:13.121Z,27.52
2022-10-13T06:42:41.963Z,26.25
2022-10-13T06:45:12.130Z,26.45
2022-10-13T06:47:42.379Z,23.90
2022-10-13T06:50:11.468Z,23.10
2022-10-13T06:52:41.502Z,24.00
2022-10-13T06:55:10.761Z,25.38
2022-10-13T06:57:39.589Z,23.40
2022-10-13T07:00:11.122Z,23.23
2022-10-13T07:02:40.609Z,23.13
2022-10-13T07:05:10.120Z,23.08
2022-10-13T07:07:38.921Z,23.35
2022-10-13T07:10:10.216Z,23.45
2022-10-13T07:12:39.963Z,23.77
2022-10-13T07:15:10.074Z,25.27
2022-10-13T07:17:39.201Z,23.63
2022-10-13T07:20:09.507Z,19.23
2022-10-13T07:22:38.041Z,38.15
2022-10-13T07:25:09.883Z,22.40
2022-10-13T07:27:40.828Z,18.92
2022-10-13T07:30:10.323Z,20.63
2022-10-13T07:32:39.429Z,16.80
2022-10-13T07:35:08.826Z,16.92
2022-10-13T07:37:37.746Z,17.38
2022-10-13T07:40:09.976Z,15.85
2022-10-13T07:42:38.555Z,15.02
2022-10-13T07:45:09.397Z,15.15
2022-10-13T07:47:37.981Z,12.90
2022-10-13T07:50:07.786Z,14.07
2022-10-13T07:52:37.163Z,14.55
2022-10-13T07:55:08.893Z,13.95
2022-10-13T07:57:37.806Z,13.45
2022-10-13T08:00:08.537Z,12.50
2022-10-13T08:02:42.961Z,13.35
2022-10-13T08:05:11.518Z,12.65
2022-10-13T08:07:40.293Z,10.93
2022-10-13T08:10:11.277Z,10.73
2022-10-13T08:12:40.573Z,9.77
2022-10-13T08:15:11.959Z,10.98
2022-10-13T08:17:40.804Z,10.07
2022-10-13T08:20:10.738Z,10.10
2022-10-13T08:22:39.520Z,10.70
2022-10-13T08:25:11.215Z,10.43
2022-10-13T08:27:50.644Z,10.18
2022-10-13T08:30:20.675Z,10.52
2022-10-13T08:32:49.550Z,10.55
2022-10-13T08:35:18.266Z,9.82
2022-10-13T08:37:46.841Z,11.43
2022-10-13T08:40:21.849Z,9.55
2022-10-13T08:42:51.057Z,11.57
2022-10-13T08:45:40.928Z,9.88
2022-10-13T08:48:17.161Z,12.13
2022-10-13T08:50:50.389Z,11.52
2022-10-13T08:53:29.121Z,11.88
2022-10-13T08:56:03.863Z,12.48
2022-10-13T08:58:38.378Z,9.05
2022-10-13T09:01:15.912Z,10.23
2022-10-13T09:03:55.710Z,8.35
2022-10-13T09:06:28.831Z,9.77
2022-10-13T09:09:01.907Z,15.30
2022-10-13T09:11:35.954Z,8.05
2022-10-13T09:14:08.031Z,7.90
2022-10-13T09:16:40.907Z,8.07
2022-10-13T09:19:23.499Z,8.85
2022-10-13T09:21:54.469Z,7.80
2022-10-13T09:24:26.082Z,7.25
2022-10-13T09:27:12.761Z,7.68
2022-10-13T09:29:43.127Z,9.77
2022-10-13T09:32:19.986Z,9.82
2022-10-13T09:34:49.815Z,7.30
2022-10-13T09:37:22.302Z,6.95
2022-10-13T09:40:12.993Z,7.85
2022-10-13T09:42:43.165Z,8.25
2022-10-13T09:45:18.720Z,6.78
2022-10-13T09:47:54.249Z,7.78
2022-10-13T09:50:26.759Z,7.57
2022-10-13T09:53:16.396Z,8.00
2022-10-13T09:55:48.543Z,9.68
2022-10-13T09:58:32.137Z,10.00
2022-10-13T10:01:01.318Z,6.35
2022-10-13T10:03:38.201Z,6.45
2022-10-13T10:06:12.414Z,5.90
2022-10-13T10:09:02.869Z,6.55
2022-10-13T10:11:40.530Z,5.43
2022-10-13T10:14:22.892Z,6.97
2022-10-13T10:17:01.383Z,4.25
2022-10-13T10:19:48.848Z,4.88
2022-10-13T10:22:31.492Z,4.10
2022-10-13T10:25:27.311Z,4.80
2022-10-13T10:28:42.549Z,4.75
2022-10-13T10:31:33.941Z,5.20
2022-10-13T10:34:28.585Z,3.97
2022-10-13T10:37:22.725Z,3.42
2022-10-13T10:40:07.973Z,4.00
2022-10-13T10:43:04.350Z,4.20
2022-10-13T10:45:39.540Z,3.60
2022-10-13T10:48:23.039Z,3.22
2022-10-13T10:50:54.327Z,3.25
2022-10-13T10:53:35.151Z,3.28
2022-10-13T10:56:17.033Z,3.33
2022-10-13T10:59:03.291Z,2.72
2022-10-13T11:01:42.946Z,3.50
2022-10-13T11:04:41.911Z,4.05
2022-10-13T11:07:35.942Z,4.20
2022-10-13T11:10:22.001Z,5.07
2022-10-13T11:13:27.762Z,3.45
2022-10-13T11:15:56.644Z,4.65
2022-10-13T11:19:25.869Z,3.03
2022-10-13T11:22:23.846Z,4.50
2022-10-13T11:25:24.729Z,4.20
2022-10-13T11:27:53.519Z,4.18
2022-10-13T11:30:44.854Z,3.63
2022-10-13T11:33:54.832Z,3.78
2022-10-13T11:36:56.897Z,3.72
2022-10-13T11:40:10.316Z,4.03
2022-10-13T11:43:39.047Z,3.05
2022-10-13T11:46:24.039Z,3.03
2022-10-13T11:49:32.642Z,3.15
2022-10-13T11:52:30.342Z,5.35
2022-10-13T11:55:12.373Z,3.80
2022-10-13T11:57:42.640Z,3.88
2022-10-13T12:00:21.113Z,3.58
2022-10-13T12:02:53.487Z,4.47
2022-10-13T12:05:26.505Z,3.63
2022-10-13T12:08:00.302Z,3.88
2022-10-13T12:10:34.889Z,4.18
2022-10-13T12:13:06.310Z,4.32
2022-10-13T12:15:38.945Z,3.92
2022-10-13T12:18:23.951Z,4.35
2022-10-13T12:20:58.302Z,3.42
2022-10-13T12:23:27.974Z,3.85
2022-10-13T12:25:59.180Z,4.85
2022-10-13T12:28:31.903Z,3.58
2022-10-13T12:31:01.726Z,3.75
2022-10-13T12:33:35.382Z,4.57
2022-10-13T12:36:18.787Z,4.88
2022-10-13T12:38:53.626Z,4.50
2022-10-13T12:41:28.636Z,5.65
2022-10-13T12:44:01.144Z,5.40
2022-10-13T12:46:45.129Z,4.85
2022-10-13T12:49:17.131Z,4.55
2022-10-13T12:51:49.313Z,4.93
2022-10-13T12:54:24.478Z,5.38
2022-10-13T12:57:00.347Z,5.78
2022-10-13T12:59:31.848Z,5.07
2022-10-13T13:02:04.640Z,5.88
2022-10-13T13:04:43.887Z,5.43
2022-10-13T13:07:33.845Z,4.75
2022-10-13T13:10:19.600Z,4.93
2022-10-13T13:12:51.185Z,4.75
2022-10-13T13:15:33.685Z,5.00
2022-10-13T13:18:32.128Z,5.20
2022-10-13T13:21:01.998Z,5.60
2022-10-13T13:23:34.366Z,5.88
2022-10-13T13:26:14.385Z,4.78
2022-10-13T13:28:48.412Z,4.90
2022-10-13T13:31:19.959Z,5.20
2022-10-13T13:33:49.453Z,4.45
2022-10-13T13:36:21.681Z,4.68
2022-10-13T13:38:55.187Z,5.05
2022-10-13T13:41:27.716Z,5.05
2022-10-13T13:43:57.974Z,5.97
2022-10-13T13:46:29.134Z,8.23
2022-10-13T13:48:57.647Z,18.75
2022-10-13T13:51:26.270Z,8.13
2022-10-13T13:53:55.066Z,7.40
2022-10-13T13:56:23.601Z,8.68
2022-10-13T13:58:52.353Z,7.13
2022-10-13T14:01:22.848Z,5.75
2022-10-13T14:03:51.407Z,7.60
2022-10-13T14:06:23.003Z,6.32
2022-10-13T14:08:51.711Z,4.20
2022-10-13T14:11:21.338Z,4.35
2022-10-13T14:13:50.257Z,4.07
2022-10-13T14:16:28.160Z,4.47
2022-10-13T14:18:58.232Z,4.15
2022-10-13T14:21:28.235Z,3.80
2022-10-13T14:23:58.943Z,4.40
2022-10-13T14:26:27.717Z,4.55
2022-10-13T14:28:58.437Z,4.40
2022-10-13T14:31:28.761Z,4.88
2022-10-13T14:33:57.971Z,5.90
2022-10-13T14:36:29.493Z,5.45
2022-10-13T14:38:58.228Z,4.68
2022-10-13T14:41:27.361Z,4.90
2022-10-13T14:43:57.791Z,4.35
2022-10-13T14:46:28.315Z,4.47
2022-10-13T14:48:58.457Z,4.50
2022-10-13T14:51:27.238Z,4.60
2022-10-13T14:53:56.384Z,3.88
2022-10-13T14:56:29.667Z,4.55
2022-10-13T14:59:00.961Z,4.60
2022-10-13T15:01:41.390Z,4.80
2022-10-13T15:04:10.957Z,4.40
2022-10-13T15:06:41.112Z,6.00
2022-10-13T15:09:12.347Z,5.18
2022-10-13T15:11:40.940Z,16.77
2022-10-13T15:14:09.947Z,14.75
2022-10-13T15:16:40.068Z,16.83
2022-10-13T15:19:08.817Z,7.40
2022-10-13T15:21:37.540Z,6.43
2022-10-13T15:24:06.789Z,7.13
2022-10-13T15:26:36.864Z,7.82
2022-10-13T15:29:05.586Z,7.57
2022-10-13T15:31:34.302Z,7.07
2022-10-13T15:34:04.379Z,6.70
2022-10-13T15:36:33.126Z,5.18
2022-10-13T15:39:01.903Z,6.05
2022-10-13T15:41:30.445Z,5.80
2022-10-13T15:43:59.387Z,5.45
2022-10-13T15:46:29.818Z,5.60
2022-10-13T15:48:59.981Z,4.75
2022-10-13T15:51:30.324Z,4.85
2022-10-13T15:53:58.943Z,4.53
2022-10-13T15:56:27.739Z,7.00
2022-10-13T15:58:56.277Z,6.25
2022-10-13T16:01:25.268Z,5.55
2022-10-13T16:03:55.477Z,7.63
2022-10-13T16:06:24.845Z,7.05
2022-10-13T16:08:55.146Z,9.60
2022-10-13T16:11:24.409Z,10.70
2022-10-13T16:13:53.972Z,11.13
2022-10-13T16:16:23.257Z,11.38
2022-10-13T16:18:52.419Z,11.30
2022-10-13T16:21:25.819Z,8.88
2022-10-13T16:23:56.630Z,7.18
2022-10-13T16:26:25.779Z,6.38
2022-10-13T16:28:56.769Z,6.70
2022-10-13T16:31:25.862Z,7.20
2022-10-13T16:33:55.551Z,7.10
2022-10-13T16:36:25.300Z,6.97
2022-10-13T16:38:56.079Z,7.07
2022-10-13T16:41:25.814Z,8.23
2022-10-13T16:43:54.562Z,9.13
2022-10-13T16:46:23.482Z,10.82
2022-10-13T16:48:52.385Z,10.45
2022-10-13T16:51:24.014Z,10.18
2022-10-13T16:54:01.166Z,10.85
2022-10-13T16:56:32.970Z,10.02
2022-10-13T16:59:05.231Z,10.65
2022-10-13T17:01:36.371Z,9.98
2022-10-13T17:04:06.434Z,11.63
2022-10-13T17:06:38.679Z,11.73
2022-10-13T17:09:10.691Z,12.48
2022-10-13T17:11:42.772Z,18.27
2022-10-13T17:14:11.971Z,50.88
2022-10-13T17:16:40.485Z,31.20
2022-10-13T17:19:09.230Z,32.67
2022-10-13T17:21:38.981Z,25.13
2022-10-13T17:24:11.922Z,20.15
2022-10-13T17:26:41.015Z,18.20
2022-10-13T17:29:09.972Z,16.67
2022-10-13T17:31:39.117Z,16.40
2022-10-13T17:34:09.325Z,16.88
2022-10-13T17:36:38.101Z,15.93
2022-10-13T17:39:14.268Z,14.93
2022-10-13T17:41:43.259Z,16.50
2022-10-13T17:44:12.383Z,15.18
2022-10-13T17:46:41.022Z,15.75
2022-10-13T17:49:13.414Z,14.55
2022-10-13T17:51:43.601Z,15.65
2022-10-13T17:54:16.503Z,14.77
2022-10-13T17:56:47.443Z,14.27
2022-10-13T17:59:18.399Z,15.70
2022-10-13T18:01:47.354Z,15.48
2022-10-13T18:04:19.225Z,15.27
2022-10-13T18:06:48.575Z,15.23
2022-10-13T18:09:23.303Z,16.23
2022-10-13T18:11:55.235Z,15.13
2022-10-13T18:14:26.036Z,15.05
2022-10-13T18:16:55.381Z,15.20
2022-10-13T18:19:24.172Z,15.07
2022-10-13T18:21:53.339Z,15.45
2022-10-13T18:24:25.183Z,15.43
2022-10-13T18:26:54.949Z,15.80
2022-10-13T18:29:25.527Z,16.15
2022-10-13T18:31:56.492Z,16.35
2022-10-13T18:34:25.118Z,17.25
2022-10-13T18:36:55.923Z,18.55
2022-10-13T18:39:30.120Z,18.63
2022-10-13T18:41:59.257Z,18.50
2022-10-13T18:44:35.937Z,18.60
2022-10-13T18:47:04.647Z,19.25
2022-10-13T18:49:33.325Z,19.63
2022-10-13T18:52:03.081Z,19.25
2022-10-13T18:54:33.733Z,20.50
2022-10-13T18:57:02.950Z,20.25
2022-10-13T18:59:31.544Z,21.58
2022-10-13T19:02:00.312Z,20.85
2022-10-13T19:04:29.107Z,21.35
2022-10-13T19:06:57.613Z,20.80
2022-10-13T19:09:26.430Z,23.10
2022-10-13T19:11:57.877Z,21.45
2022-10-13T19:14:27.553Z,23.17
2022-10-13T19:17:00.876Z,22.08
2022-10-13T19:19:31.604Z,23.20
2022-10-13T19:22:02.278Z,22.75
2022-10-13T19:24:31.471Z,22.00
2022-10-13T19:27:01.373Z,22.10
2022-10-13T19:29:32.762Z,21.60
2022-10-13T19:32:01.938Z,21.02
2022-10-13T19:34:30.759Z,21.30
2022-10-13T19:37:01.806Z,21.67
2022-10-13T19:39:30.776Z,22.13
2022-10-13T19:42:01.085Z,20.88
2022-10-13T19:44:30.000Z,21.30
2022-10-13T19:46:58.545Z,20.95
2022-10-13T19:49:27.312Z,21.55
2022-10-13T19:51:56.630Z,21.23
2022-10-13T19:54:30.189Z,20.98
2022-10-13T19:57:03.349Z,20.38
2022-10-13T19:59:32.147Z,20.80
2022-10-13T20:02:00.766Z,19.17
2022-10-13T20:04:29.863Z,19.27
2022-10-13T20:06:58.433Z,19.27
2022-10-13T20:09:27.364Z,19.60
2022-10-13T20:11:56.614Z,19.13
2022-10-13T20:14:26.695Z,18.67
2022-10-13T20:16:56.960Z,19.33
2022-10-13T20:19:25.721Z,18.92
2022-10-13T20:21:54.352Z,19.02
2022-10-13T20:24:23.880Z,19.27
2022-10-13T20:26:52.576Z,18.77
2022-10-13T20:29:24.445Z,18.63
2022-10-13T20:31:54.419Z,18.73
2022-10-13T20:34:23.046Z,20.23
2022-10-13T20:36:52.032Z,17.42
2022-10-13T20:39:20.779Z,19.42
2022-10-13T20:41:49.327Z,17.00
2022-10-13T20:44:19.308Z,18.10
2022-10-13T20:46:47.872Z,18.88
2022-10-13T20:49:18.000Z,17.85
2022-10-13T20:51:47.142Z,18.70
2022-10-13T20:54:17.135Z,18.33
2022-10-13T20:56:47.275Z,18.48
2022-10-13T20:59:16.279Z,18.92
2022-10-13T21:01:44.999Z,19.23
2022-10-13T21:04:14.173Z,19.35
2022-10-13T21:06:44.547Z,18.73
2022-10-13T21:09:13.780Z,21.02
2022-10-13T21:11:44.277Z,21.05
2022-10-13T21:14:13.011Z,22.88
2022-10-13T21:16:43.371Z,22.40
2022-10-13T21:19:13.171Z,21.88
2022-10-13T21:21:43.319Z,23.52
2022-10-13T21:24:12.337Z,23.65
2022-10-13T21:26:42.126Z,24.33
2022-10-13T21:29:15.795Z,23.92
2022-10-13T21:31:44.573Z,25.38
2022-10-13T21:34:13.958Z,24.70
2022-10-13T21:36:45.406Z,24.23
2022-10-13T21:39:15.365Z,22.33
2022-10-13T21:41:44.404Z,25.33
2022-10-13T21:44:15.051Z,23.52
2022-10-13T21:46:43.651Z,25.10
2022-10-13T21:49:12.509Z,25.00
2022-10-13T21:51:43.012Z,23.80
2022-10-13T21:54:15.140Z,22.75
2022-10-13T21:56:44.785Z,23.40
2022-10-13T21:59:14.721Z,23.80
2022-10-13T22:01:44.079Z,22.83
2022-10-13T22:04:16.601Z,23.42
2022-10-13T22:06:46.595Z,22.75
2022-10-13T22:09:15.611Z,22.35
2022-10-13T22:11:45.619Z,22.40
2022-10-13T22:14:14.698Z,21.80
2022-10-13T22:16:46.879Z,22.08
2022-10-13T22:19:18.173Z,22.35
2022-10-13T22:21:50.447Z,21.25
2022-10-13T22:24:21.867Z,21.17
2022-10-13T22:26:51.613Z,22.08
2022-10-13T22:29:23.625Z,21.48
2022-10-13T22:31:56.949Z,21.35
2022-10-13T22:34:25.771Z,22.15
2022-10-13T22:36:55.724Z,23.15
2022-10-13T22:39:24.474Z,21.33
2022-10-13T22:41:55.057Z,21.10
2022-10-13T22:44:23.562Z,21.65
2022-10-13T22:46:52.115Z,22.30
2022-10-13T22:49:20.815Z,22.42
2022-10-13T22:51:49.313Z,21.90
2022-10-13T22:54:19.201Z,23.08
2022-10-13T22:56:48.000Z,21.40
2022-10-13T22:59:16.673Z,21.88
2022-10-13T23:01:45.253Z,21.80
2022-10-13T23:04:13.977Z,21.92
2022-10-13T23:06:42.557Z,21.75
2022-10-13T23:09:14.741Z,20.88
2022-10-13T23:11:44.842Z,20.63
2022-10-13T23:14:19.889Z,20.02
2022-10-13T23:16:48.855Z,20.58
2022-10-13T23:19:19.520Z,21.13
2022-10-13T23:21:48.110Z,20.92
2022-10-13T23:24:17.082Z,21.05
2022-10-13T23:26:47.068Z,19.65
2022-10-13T23:29:15.683Z,20.67
2022-10-13T23:31:44.386Z,19.85
2022-10-13T23:34:12.925Z,20.17
2022-10-13T23:36:41.657Z,20.58
2022-10-13T23:39:12.412Z,20.48
2022-10-13T23:41:41.971Z,20.48
2022-10-13T23:44:12.166Z,21.77
2022-10-13T23:46:40.879Z,20.40
2022-10-13T23:49:13.944Z,20.95
2022-10-13T23:51:45.303Z,19.75
2022-10-13T23:54:14.110Z,19.80
2022-10-13T23:56:43.325Z,19.90
2022-10-13T23:59:13.224Z,21.20
